sensor_id;sensor_type;location;lat;lon;timestamp;pressure;altitude;pressure_sealevel;temperature
69857;BMP280;57147;53.582;10.112;2023-03-31T00:00:24;99958.03;;;8.95
69857;BMP280;57147;53.582;10.112;2023-03-31T00:05:25;99955.50;;;8.90
69857;BMP280;57147;53.582;10.112;2023-03-31T00:10:26;99955.88;;;8.84
69857;BMP280;57147;53.582;10.112;2023-03-31T00:15:29;100008.03;;;8.83
69857;BMP280;57147;53.582;10.112;2023-03-31T00:20:30;100029.22;;;8.83
69857;BMP280;57147;53.582;10.112;2023-03-31T00:25:31;100004.31;;;8.84
69857;BMP280;57147;53.582;10.112;2023-03-31T00:30:34;99978.63;;;8.85
69857;BMP280;57147;53.582;10.112;2023-03-31T00:35:35;99971.88;;;8.79
69857;BMP280;57147;53.582;10.112;2023-03-31T00:40:35;99978.34;;;8.72
69857;BMP280;57147;53.582;10.112;2023-03-31T00:45:39;100004.69;;;8.64
69857;BMP280;57147;53.582;10.112;2023-03-31T00:50:43;99996.06;;;8.58
69857;BMP280;57147;53.582;10.112;2023-03-31T00:55:50;100017.06;;;8.55
69857;BMP280;57147;53.582;10.112;2023-03-31T01:00:56;100007.13;;;8.47
69857;BMP280;57147;53.582;10.112;2023-03-31T01:06:00;100027.22;;;8.48
69857;BMP280;57147;53.582;10.112;2023-03-31T01:11:04;100038.19;;;8.41
69857;BMP280;57147;53.582;10.112;2023-03-31T01:16:08;100050.63;;;8.41
69857;BMP280;57147;53.582;10.112;2023-03-31T01:21:26;100067.41;;;8.50
69857;BMP280;57147;53.582;10.112;2023-03-31T01:26:48;100079.16;;;8.57
69857;BMP280;57147;53.582;10.112;2023-03-31T01:32:18;100014.81;;;8.62
69857;BMP280;57147;53.582;10.112;2023-03-31T01:37:48;100054.91;;;8.69
69857;BMP280;57147;53.582;10.112;2023-03-31T01:43:05;100101.94;;;8.72
69857;BMP280;57147;53.582;10.112;2023-03-31T01:48:11;100114.69;;;8.70
69857;BMP280;57147;53.582;10.112;2023-03-31T01:53:17;100183.66;;;8.60
69857;BMP280;57147;53.582;10.112;2023-03-31T01:58:25;100144.81;;;8.55
69857;BMP280;57147;53.582;10.112;2023-03-31T02:03:30;100141.63;;;8.39
69857;BMP280;57147;53.582;10.112;2023-03-31T02:08:35;100193.66;;;8.63
69857;BMP280;57147;53.582;10.112;2023-03-31T02:13:42;100210.63;;;8.62
69857;BMP280;57147;53.582;10.112;2023-03-31T02:18:45;100212.22;;;8.76
69857;BMP280;57147;53.582;10.112;2023-03-31T02:23:48;100158.34;;;8.86
69857;BMP280;57147;53.582;10.112;2023-03-31T02:28:52;100182.31;;;8.76
69857;BMP280;57147;53.582;10.112;2023-03-31T02:33:53;100208.75;;;8.62
69857;BMP280;57147;53.582;10.112;2023-03-31T02:38:58;100239.22;;;8.60
69857;BMP280;57147;53.582;10.112;2023-03-31T02:44:04;100267.94;;;8.66
69857;BMP280;57147;53.582;10.112;2023-03-31T02:49:06;100283.91;;;8.80
69857;BMP280;57147;53.582;10.112;2023-03-31T02:54:14;100281.19;;;8.85
69857;BMP280;57147;53.582;10.112;2023-03-31T02:59:31;100288.06;;;8.86
69857;BMP280;57147;53.582;10.112;2023-03-31T03:04:49;100297.63;;;8.82
69857;BMP280;57147;53.582;10.112;2023-03-31T03:10:00;100311.16;;;8.81
69857;BMP280;57147;53.582;10.112;2023-03-31T03:15:07;100282.19;;;8.89
69857;BMP280;57147;53.582;10.112;2023-03-31T03:20:12;100281.09;;;8.90
69857;BMP280;57147;53.582;10.112;2023-03-31T03:25:14;100298.06;;;8.89
69857;BMP280;57147;53.582;10.112;2023-03-31T03:30:18;100244.34;;;8.89
69857;BMP280;57147;53.582;10.112;2023-03-31T03:35:19;100200.81;;;8.95
69857;BMP280;57147;53.582;10.112;2023-03-31T03:40:19;100163.28;;;8.74
69857;BMP280;57147;53.582;10.112;2023-03-31T03:45:22;100182.66;;;8.88
69857;BMP280;57147;53.582;10.112;2023-03-31T03:50:23;100147.25;;;8.84
69857;BMP280;57147;53.582;10.112;2023-03-31T03:55:24;100162.63;;;8.82
69857;BMP280;57147;53.582;10.112;2023-03-31T04:00:27;100165.88;;;8.79
69857;BMP280;57147;53.582;10.112;2023-03-31T04:05:27;100161.16;;;8.76
69857;BMP280;57147;53.582;10.112;2023-03-31T04:10:28;100157.72;;;8.75
69857;BMP280;57147;53.582;10.112;2023-03-31T04:15:31;100134.13;;;8.79
69857;BMP280;57147;53.582;10.112;2023-03-31T04:20:32;100084.91;;;8.78
69857;BMP280;57147;53.582;10.112;2023-03-31T04:25:32;100075.69;;;8.75
69857;BMP280;57147;53.582;10.112;2023-03-31T04:30:36;100034.31;;;8.80
69857;BMP280;57147;53.582;10.112;2023-03-31T04:35:36;100034.63;;;8.78
69857;BMP280;57147;53.582;10.112;2023-03-31T04:40:37;100020.78;;;8.81
69857;BMP280;57147;53.582;10.112;2023-03-31T04:45:40;100028.13;;;8.84
69857;BMP280;57147;53.582;10.112;2023-03-31T04:50:41;100059.91;;;8.84
69857;BMP280;57147;53.582;10.112;2023-03-31T04:55:41;100068.34;;;8.86
69857;BMP280;57147;53.582;10.112;2023-03-31T05:00:45;100065.69;;;8.86
69857;BMP280;57147;53.582;10.112;2023-03-31T05:05:45;100039.41;;;8.90
69857;BMP280;57147;53.582;10.112;2023-03-31T05:10:46;100045.19;;;8.92
69857;BMP280;57147;53.582;10.112;2023-03-31T05:15:49;100014.22;;;8.92
69857;BMP280;57147;53.582;10.112;2023-03-31T05:20:50;99977.34;;;9.09
69857;BMP280;57147;53.582;10.112;2023-03-31T05:25:51;100004.69;;;9.19
69857;BMP280;57147;53.582;10.112;2023-03-31T05:30:54;100007.69;;;9.26
69857;BMP280;57147;53.582;10.112;2023-03-31T05:35:54;99994.22;;;9.36
69857;BMP280;57147;53.582;10.112;2023-03-31T05:40:55;99795.31;;;9.24
69857;BMP280;57147;53.582;10.112;2023-03-31T05:45:58;99797.66;;;9.25
69857;BMP280;57147;53.582;10.112;2023-03-31T05:50:59;99808.31;;;9.34
69857;BMP280;57147;53.582;10.112;2023-03-31T05:56:02;99843.09;;;9.41
69857;BMP280;57147;53.582;10.112;2023-03-31T06:01:07;99800.94;;;9.53
69857;BMP280;57147;53.582;10.112;2023-03-31T06:06:10;99801.53;;;9.50
69857;BMP280;57147;53.582;10.112;2023-03-31T06:11:13;99772.25;;;9.46
69857;BMP280;57147;53.582;10.112;2023-03-31T06:16:17;99766.84;;;9.60
69857;BMP280;57147;53.582;10.112;2023-03-31T06:21:18;99757.56;;;9.71
69857;BMP280;57147;53.582;10.112;2023-03-31T06:26:18;99747.94;;;9.92
69857;BMP280;57147;53.582;10.112;2023-03-31T06:31:23;99654.50;;;9.96
69857;BMP280;57147;53.582;10.112;2023-03-31T06:36:23;99663.22;;;10.13
69857;BMP280;57147;53.582;10.112;2023-03-31T06:41:24;99627.19;;;10.21
69857;BMP280;57147;53.582;10.112;2023-03-31T06:46:27;99663.84;;;10.36
69857;BMP280;57147;53.582;10.112;2023-03-31T06:51:28;99621.69;;;10.52
69857;BMP280;57147;53.582;10.112;2023-03-31T06:56:28;99627.47;;;10.45
69857;BMP280;57147;53.582;10.112;2023-03-31T07:01:32;99613.13;;;10.46
69857;BMP280;57147;53.582;10.112;2023-03-31T07:06:36;99607.47;;;10.56
69857;BMP280;57147;53.582;10.112;2023-03-31T07:11:36;99567.91;;;10.72
69857;BMP280;57147;53.582;10.112;2023-03-31T07:16:39;99573.78;;;10.86
69857;BMP280;57147;53.582;10.112;2023-03-31T07:21:40;99562.75;;;10.76
69857;BMP280;57147;53.582;10.112;2023-03-31T07:26:41;99576.31;;;11.12
69857;BMP280;57147;53.582;10.112;2023-03-31T07:31:45;99549.41;;;11.34
69857;BMP280;57147;53.582;10.112;2023-03-31T07:36:46;99554.16;;;11.49
69857;BMP280;57147;53.582;10.112;2023-03-31T07:41:47;99546.75;;;11.76
69857;BMP280;57147;53.582;10.112;2023-03-31T07:46:50;99555.19;;;11.57
69857;BMP280;57147;53.582;10.112;2023-03-31T07:51:51;99546.75;;;11.34
69857;BMP280;57147;53.582;10.112;2023-03-31T07:56:52;99539.88;;;11.12
69857;BMP280;57147;53.582;10.112;2023-03-31T08:01:56;99539.13;;;10.53
69857;BMP280;57147;53.582;10.112;2023-03-31T08:06:56;99562.06;;;10.03
69857;BMP280;57147;53.582;10.112;2023-03-31T08:11:57;99671.47;;;9.60
69857;BMP280;57147;53.582;10.112;2023-03-31T08:17:00;99760.38;;;9.44
69857;BMP280;57147;53.582;10.112;2023-03-31T08:22:01;99851.47;;;9.57
69857;BMP280;57147;53.582;10.112;2023-03-31T08:27:02;99843.44;;;9.70
69857;BMP280;57147;53.582;10.112;2023-03-31T08:32:05;99828.06;;;9.89
69857;BMP280;57147;53.582;10.112;2023-03-31T08:37:06;99814.44;;;9.74
69857;BMP280;57147;53.582;10.112;2023-03-31T08:42:10;99788.91;;;9.78
69857;BMP280;57147;53.582;10.112;2023-03-31T08:47:19;99751.88;;;9.64
69857;BMP280;57147;53.582;10.112;2023-03-31T08:52:25;99800.28;;;9.78
69857;BMP280;57147;53.582;10.112;2023-03-31T08:57:32;99791.84;;;9.76
69857;BMP280;57147;53.582;10.112;2023-03-31T09:02:42;99677.41;;;9.74
69857;BMP280;57147;53.582;10.112;2023-03-31T09:07:54;99666.75;;;9.57
69857;BMP280;57147;53.582;10.112;2023-03-31T09:13:02;99686.75;;;9.80
69857;BMP280;57147;53.582;10.112;2023-03-31T09:18:14;99687.09;;;9.79
69857;BMP280;57147;53.582;10.112;2023-03-31T09:23:23;99682.56;;;9.79
69857;BMP280;57147;53.582;10.112;2023-03-31T09:28:29;99671.53;;;9.95
69857;BMP280;57147;53.582;10.112;2023-03-31T09:33:36;99630.66;;;9.96
69857;BMP280;57147;53.582;10.112;2023-03-31T09:38:41;99624.13;;;10.02
69857;BMP280;57147;53.582;10.112;2023-03-31T09:43:42;99643.41;;;10.11
69857;BMP280;57147;53.582;10.112;2023-03-31T09:48:52;99629.53;;;10.22
69857;BMP280;57147;53.582;10.112;2023-03-31T09:53:58;99610.66;;;10.07
69857;BMP280;57147;53.582;10.112;2023-03-31T09:59:01;99595.28;;;10.55
69857;BMP280;57147;53.582;10.112;2023-03-31T10:04:07;99564.47;;;10.71
69857;BMP280;57147;53.582;10.112;2023-03-31T10:09:09;99561.91;;;11.13
69857;BMP280;57147;53.582;10.112;2023-03-31T10:14:12;99456.13;;;10.94
69857;BMP280;57147;53.582;10.112;2023-03-31T10:19:20;99495.69;;;11.49
69857;BMP280;57147;53.582;10.112;2023-03-31T10:24:21;99446.16;;;11.90
69857;BMP280;57147;53.582;10.112;2023-03-31T10:29:28;99428.97;;;11.30
69857;BMP280;57147;53.582;10.112;2023-03-31T10:34:40;99445.94;;;11.17
69857;BMP280;57147;53.582;10.112;2023-03-31T10:39:42;99457.09;;;11.31
69857;BMP280;57147;53.582;10.112;2023-03-31T10:44:43;99416.00;;;11.74
69857;BMP280;57147;53.582;10.112;2023-03-31T10:49:48;99407.81;;;11.79
69857;BMP280;57147;53.582;10.112;2023-03-31T10:54:52;99411.00;;;11.27
69857;BMP280;57147;53.582;10.112;2023-03-31T11:00:02;99420.63;;;10.99
69857;BMP280;57147;53.582;10.112;2023-03-31T11:05:13;99459.44;;;11.12
69857;BMP280;57147;53.582;10.112;2023-03-31T11:15:43;99416.75;;;11.50
69857;BMP280;57147;53.582;10.112;2023-03-31T11:20:56;99398.19;;;11.86
69857;BMP280;57147;53.582;10.112;2023-03-31T11:26:01;99350.88;;;11.80
69857;BMP280;57147;53.582;10.112;2023-03-31T11:31:15;99368.81;;;11.95
69857;BMP280;57147;53.582;10.112;2023-03-31T11:36:31;99341.13;;;11.60
69857;BMP280;57147;53.582;10.112;2023-03-31T11:41:35;99335.69;;;11.56
69857;BMP280;57147;53.582;10.112;2023-03-31T11:46:39;99320.31;;;11.98
69857;BMP280;57147;53.582;10.112;2023-03-31T11:51:50;99318.78;;;11.73
69857;BMP280;57147;53.582;10.112;2023-03-31T11:56:54;99319.34;;;11.21
69857;BMP280;57147;53.582;10.112;2023-03-31T12:02:00;99362.09;;;10.95
69857;BMP280;57147;53.582;10.112;2023-03-31T12:07:14;99394.09;;;10.78
69857;BMP280;57147;53.582;10.112;2023-03-31T12:12:19;99407.88;;;10.71
69857;BMP280;57147;53.582;10.112;2023-03-31T12:17:26;99417.59;;;10.67
69857;BMP280;57147;53.582;10.112;2023-03-31T12:22:32;99426.50;;;10.33
69857;BMP280;57147;53.582;10.112;2023-03-31T12:27:36;99420.03;;;10.14
69857;BMP280;57147;53.582;10.112;2023-03-31T12:32:40;99426.47;;;10.42
69857;BMP280;57147;53.582;10.112;2023-03-31T12:38:02;99418.34;;;10.47
69857;BMP280;57147;53.582;10.112;2023-03-31T12:48:47;99412.28;;;10.09
69857;BMP280;57147;53.582;10.112;2023-03-31T12:54:07;99396.56;;;9.95
69857;BMP280;57147;53.582;10.112;2023-03-31T12:59:28;99416.41;;;10.18
69857;BMP280;57147;53.582;10.112;2023-03-31T13:04:30;99417.19;;;10.19
69857;BMP280;57147;53.582;10.112;2023-03-31T13:09:45;99400.38;;;10.15
69857;BMP280;57147;53.582;10.112;2023-03-31T13:14:47;99395.50;;;10.55
69857;BMP280;57147;53.582;10.112;2023-03-31T13:19:48;99474.13;;;11.30
69857;BMP280;57147;53.582;10.112;2023-03-31T13:24:52;99300.03;;;11.45
69857;BMP280;57147;53.582;10.112;2023-03-31T13:29:53;99245.88;;;11.74
69857;BMP280;57147;53.582;10.112;2023-03-31T13:34:57;99234.00;;;11.83
69857;BMP280;57147;53.582;10.112;2023-03-31T13:45:47;99226.03;;;10.98
69857;BMP280;57147;53.582;10.112;2023-03-31T13:51:04;99264.72;;;10.99
69857;BMP280;57147;53.582;10.112;2023-03-31T13:56:24;99282.59;;;11.11
69857;BMP280;57147;53.582;10.112;2023-03-31T14:06:58;99209.81;;;12.28
69857;BMP280;57147;53.582;10.112;2023-03-31T14:12:19;99145.91;;;12.41
69857;BMP280;57147;53.582;10.112;2023-03-31T14:17:26;99137.91;;;12.25
69857;BMP280;57147;53.582;10.112;2023-03-31T14:22:38;99136.75;;;12.10
69857;BMP280;57147;53.582;10.112;2023-03-31T14:27:53;99124.16;;;11.95
69857;BMP280;57147;53.582;10.112;2023-03-31T14:33:05;99124.28;;;12.42
69857;BMP280;57147;53.582;10.112;2023-03-31T14:38:11;99099.91;;;12.56
69857;BMP280;57147;53.582;10.112;2023-03-31T14:43:21;99098.19;;;12.48
69857;BMP280;57147;53.582;10.112;2023-03-31T14:48:22;99101.00;;;12.70
69857;BMP280;57147;53.582;10.112;2023-03-31T14:53:23;99103.50;;;12.79
69857;BMP280;57147;53.582;10.112;2023-03-31T14:58:29;99105.66;;;12.58
69857;BMP280;57147;53.582;10.112;2023-03-31T15:03:31;99111.03;;;12.77
69857;BMP280;57147;53.582;10.112;2023-03-31T15:08:33;99111.78;;;13.44
69857;BMP280;57147;53.582;10.112;2023-03-31T15:13:40;99119.78;;;13.63
69857;BMP280;57147;53.582;10.112;2023-03-31T15:18:41;99136.75;;;13.74
69857;BMP280;57147;53.582;10.112;2023-03-31T15:23:41;99153.03;;;13.50
69857;BMP280;57147;53.582;10.112;2023-03-31T15:28:50;99143.22;;;13.19
69857;BMP280;57147;53.582;10.112;2023-03-31T15:33:52;99135.97;;;13.35
69857;BMP280;57147;53.582;10.112;2023-03-31T15:38:55;99146.38;;;13.59
69857;BMP280;57147;53.582;10.112;2023-03-31T15:44:06;99142.50;;;13.57
69857;BMP280;57147;53.582;10.112;2023-03-31T15:49:18;99151.75;;;13.09
69857;BMP280;57147;53.582;10.112;2023-03-31T15:54:33;99141.69;;;13.18
69857;BMP280;57147;53.582;10.112;2023-03-31T15:59:46;99148.00;;;12.94
69857;BMP280;57147;53.582;10.112;2023-03-31T16:04:47;99131.06;;;12.87
69857;BMP280;57147;53.582;10.112;2023-03-31T16:09:51;99131.22;;;12.78
69857;BMP280;57147;53.582;10.112;2023-03-31T16:14:59;99133.03;;;12.43
69857;BMP280;57147;53.582;10.112;2023-03-31T16:20:03;99123.19;;;12.15
69857;BMP280;57147;53.582;10.112;2023-03-31T16:25:09;99133.00;;;12.27
69857;BMP280;57147;53.582;10.112;2023-03-31T16:30:16;99142.13;;;11.98
69857;BMP280;57147;53.582;10.112;2023-03-31T16:35:17;99134.09;;;12.10
69857;BMP280;57147;53.582;10.112;2023-03-31T16:40:17;99130.19;;;12.08
69857;BMP280;57147;53.582;10.112;2023-03-31T16:45:21;99128.41;;;11.84
69857;BMP280;57147;53.582;10.112;2023-03-31T16:50:21;99121.53;;;11.83
69857;BMP280;57147;53.582;10.112;2023-03-31T16:55:22;99132.28;;;11.59
69857;BMP280;57147;53.582;10.112;2023-03-31T17:00:25;99133.97;;;11.39
69857;BMP280;57147;53.582;10.112;2023-03-31T17:05:26;99129.66;;;11.22
69857;BMP280;57147;53.582;10.112;2023-03-31T17:10:27;99124.56;;;11.05
69857;BMP280;57147;53.582;10.112;2023-03-31T17:15:30;99140.28;;;10.98
69857;BMP280;57147;53.582;10.112;2023-03-31T17:20:31;99144.38;;;10.83
69857;BMP280;57147;53.582;10.112;2023-03-31T17:25:32;99143.84;;;10.90
69857;BMP280;57147;53.582;10.112;2023-03-31T17:30:36;99150.22;;;11.01
69857;BMP280;57147;53.582;10.112;2023-03-31T17:35:37;99155.53;;;11.01
69857;BMP280;57147;53.582;10.112;2023-03-31T17:40:37;99156.44;;;11.05
69857;BMP280;57147;53.582;10.112;2023-03-31T17:45:42;99165.38;;;11.12
69857;BMP280;57147;53.582;10.112;2023-03-31T17:50:42;99166.38;;;11.08
69857;BMP280;57147;53.582;10.112;2023-03-31T17:55:43;99176.53;;;10.94
69857;BMP280;57147;53.582;10.112;2023-03-31T18:00:46;99174.78;;;10.86
69857;BMP280;57147;53.582;10.112;2023-03-31T18:05:47;99189.47;;;10.71
69857;BMP280;57147;53.582;10.112;2023-03-31T18:10:48;99211.59;;;10.75
69857;BMP280;57147;53.582;10.112;2023-03-31T18:15:51;99223.88;;;10.80
69857;BMP280;57147;53.582;10.112;2023-03-31T18:20:51;99209.28;;;10.73
69857;BMP280;57147;53.582;10.112;2023-03-31T18:25:52;99216.78;;;10.71
69857;BMP280;57147;53.582;10.112;2023-03-31T18:30:55;99246.44;;;10.73
69857;BMP280;57147;53.582;10.112;2023-03-31T18:35:59;99174.66;;;10.37
69857;BMP280;57147;53.582;10.112;2023-03-31T18:41:00;99234.41;;;10.76
69857;BMP280;57147;53.582;10.112;2023-03-31T18:46:03;99228.06;;;10.68
69857;BMP280;57147;53.582;10.112;2023-03-31T18:51:25;99200.25;;;10.54
69857;BMP280;57147;53.582;10.112;2023-03-31T18:56:44;99216.78;;;10.71
69857;BMP280;57147;53.582;10.112;2023-03-31T19:01:47;99209.56;;;10.60
69857;BMP280;57147;53.582;10.112;2023-03-31T19:06:48;99238.19;;;10.54
69857;BMP280;57147;53.582;10.112;2023-03-31T19:11:48;99243.88;;;10.44
69857;BMP280;57147;53.582;10.112;2023-03-31T19:16:52;99253.75;;;10.35
69857;BMP280;57147;53.582;10.112;2023-03-31T19:21:52;99278.94;;;10.29
69857;BMP280;57147;53.582;10.112;2023-03-31T19:26:54;99271.53;;;10.14
69857;BMP280;57147;53.582;10.112;2023-03-31T19:31:57;99265.34;;;10.10
69857;BMP280;57147;53.582;10.112;2023-03-31T19:36:58;99273.22;;;9.98
69857;BMP280;57147;53.582;10.112;2023-03-31T19:42:11;99287.56;;;9.97
69857;BMP280;57147;53.582;10.112;2023-03-31T19:47:15;99304.75;;;9.90
69857;BMP280;57147;53.582;10.112;2023-03-31T19:52:15;99311.97;;;9.81
69857;BMP280;57147;53.582;10.112;2023-03-31T19:57:18;99331.25;;;9.90
69857;BMP280;57147;53.582;10.112;2023-03-31T20:02:21;99297.28;;;9.92
69857;BMP280;57147;53.582;10.112;2023-03-31T20:07:22;99291.63;;;10.03
69857;BMP280;57147;53.582;10.112;2023-03-31T20:12:23;99295.72;;;10.12
69857;BMP280;57147;53.582;10.112;2023-03-31T20:17:26;99300.06;;;10.17
69857;BMP280;57147;53.582;10.112;2023-03-31T20:22:26;99314.13;;;10.17
69857;BMP280;57147;53.582;10.112;2023-03-31T20:27:27;99317.44;;;10.06
69857;BMP280;57147;53.582;10.112;2023-03-31T20:32:30;99320.16;;;9.97
69857;BMP280;57147;53.582;10.112;2023-03-31T20:37:31;99327.78;;;9.99
69857;BMP280;57147;53.582;10.112;2023-03-31T20:42:32;99338.66;;;10.06
69857;BMP280;57147;53.582;10.112;2023-03-31T20:47:35;99303.34;;;10.14
69857;BMP280;57147;53.582;10.112;2023-03-31T20:52:35;99299.72;;;10.18
69857;BMP280;57147;53.582;10.112;2023-03-31T20:57:36;99269.22;;;10.12
69857;BMP280;57147;53.582;10.112;2023-03-31T21:02:39;99286.44;;;10.27
69857;BMP280;57147;53.582;10.112;2023-03-31T21:07:40;99266.25;;;10.14
69857;BMP280;57147;53.582;10.112;2023-03-31T21:12:40;99278.91;;;10.08
69857;BMP280;57147;53.582;10.112;2023-03-31T21:17:47;99285.88;;;10.13
69857;BMP280;57147;53.582;10.112;2023-03-31T21:22:47;99291.00;;;10.18
69857;BMP280;57147;53.582;10.112;2023-03-31T21:27:49;99289.78;;;10.15
69857;BMP280;57147;53.582;10.112;2023-03-31T21:32:52;99295.34;;;10.22
69857;BMP280;57147;53.582;10.112;2023-03-31T21:37:52;99275.69;;;10.23
69857;BMP280;57147;53.582;10.112;2023-03-31T21:42:53;99291.09;;;10.30
69857;BMP280;57147;53.582;10.112;2023-03-31T21:47:56;99269.72;;;10.26
69857;BMP280;57147;53.582;10.112;2023-03-31T21:52:57;99284.03;;;10.34
69857;BMP280;57147;53.582;10.112;2023-03-31T21:58:02;99272.06;;;10.28
69857;BMP280;57147;53.582;10.112;2023-03-31T22:03:05;99287.84;;;10.04
69857;BMP280;57147;53.582;10.112;2023-03-31T22:08:06;99349.84;;;9.82
69857;BMP280;57147;53.582;10.112;2023-03-31T22:13:07;99366.25;;;9.75
69857;BMP280;57147;53.582;10.112;2023-03-31T22:18:10;99375.31;;;9.66
69857;BMP280;57147;53.582;10.112;2023-03-31T22:23:11;99388.19;;;9.84
69857;BMP280;57147;53.582;10.112;2023-03-31T22:28:12;99391.91;;;9.92
69857;BMP280;57147;53.582;10.112;2023-03-31T22:33:17;99396.63;;;9.86
69857;BMP280;57147;53.582;10.112;2023-03-31T22:38:17;99397.44;;;9.78
69857;BMP280;57147;53.582;10.112;2023-03-31T22:43:18;99394.94;;;9.73
69857;BMP280;57147;53.582;10.112;2023-03-31T22:48:21;99417.06;;;9.77
69857;BMP280;57147;53.582;10.112;2023-03-31T22:53:22;99400.22;;;9.73
69857;BMP280;57147;53.582;10.112;2023-03-31T22:58:22;99409.56;;;9.79
69857;BMP280;57147;53.582;10.112;2023-03-31T23:03:26;99424.66;;;9.87
69857;BMP280;57147;53.582;10.112;2023-03-31T23:08:27;99416.56;;;9.92
69857;BMP280;57147;53.582;10.112;2023-03-31T23:13:28;99401.13;;;9.95
69857;BMP280;57147;53.582;10.112;2023-03-31T23:18:32;99402.66;;;9.96
69857;BMP280;57147;53.582;10.112;2023-03-31T23:23:32;99387.88;;;9.86
69857;BMP280;57147;53.582;10.112;2023-03-31T23:28:34;99389.91;;;9.80
69857;BMP280;57147;53.582;10.112;2023-03-31T23:33:37;99393.81;;;9.83
69857;BMP280;57147;53.582;10.112;2023-03-31T23:38:38;99406.16;;;9.70
69857;BMP280;57147;53.582;10.112;2023-03-31T23:43:39;99425.31;;;9.76
69857;BMP280;57147;53.582;10.112;2023-03-31T23:48:42;99422.06;;;9.70
69857;BMP280;57147;53.582;10.112;2023-03-31T23:53:43;99419.56;;;9.65
69857;BMP280;57147;53.582;10.112;2023-03-31T23:58:44;99423.31;;;9.64
